createdAt,value
2023-01-09T00:02:02.840Z,78.62
2023-01-09T00:04:29.448Z,77.94
2023-01-09T00:06:56.281Z,78.59
2023-01-09T00:09:23.423Z,79.12
2023-01-09T00:11:50.170Z,79.06
2023-01-09T00:14:17.233Z,79.14
2023-01-09T00:16:44.030Z,79.78
2023-01-09T00:19:10.903Z,80.40
2023-01-09T00:21:37.792Z,80.82
2023-01-09T00:24:04.971Z,79.00
2023-01-09T00:26:31.651Z,76.54
2023-01-09T00:28:58.421Z,78.87
2023-01-09T00:31:25.037Z,79.49
2023-01-09T00:34:02.608Z,78.23
2023-01-09T00:36:29.515Z,77.92
2023-01-09T00:38:56.263Z,77.84
2023-01-09T00:41:35.167Z,76.22
2023-01-09T00:44:06.999Z,74.87
2023-01-09T00:46:34.735Z,75.21
2023-01-09T00:49:02.055Z,75.29
2023-01-09T00:51:28.671Z,76.55
2023-01-09T00:53:55.360Z,77.36
2023-01-09T00:56:21.996Z,78.33
2023-01-09T00:58:48.718Z,78.92
2023-01-09T01:01:15.425Z,79.32
2023-01-09T01:03:42.216Z,78.94
2023-01-09T01:06:27.436Z,78.40
2023-01-09T01:08:55.942Z,76.52
2023-01-09T01:11:22.876Z,75.92
2023-01-09T01:13:49.674Z,76.04
2023-01-09T01:16:18.306Z,76.91
2023-01-09T01:18:45.148Z,75.95
2023-01-09T01:21:13.107Z,77.08
2023-01-09T01:23:39.966Z,77.47
2023-01-09T01:26:11.535Z,77.84
2023-01-09T01:28:38.233Z,78.85
2023-01-09T01:31:05.110Z,79.42
2023-01-09T01:33:32.210Z,78.91
2023-01-09T01:36:06.301Z,77.92
2023-01-09T01:38:33.146Z,77.90
2023-01-09T01:40:59.959Z,78.67
2023-01-09T01:43:26.606Z,78.33
2023-01-09T01:45:53.344Z,78.77
2023-01-09T01:48:28.237Z,79.74
2023-01-09T01:51:05.289Z,79.52
2023-01-09T01:53:42.063Z,81.03
2023-01-09T01:56:26.763Z,80.94
2023-01-09T01:59:06.079Z,82.50
2023-01-09T02:01:33.845Z,82.46
2023-01-09T02:04:01.219Z,83.34
2023-01-09T02:06:28.596Z,82.95
2023-01-09T02:08:55.455Z,84.13
2023-01-09T02:11:22.513Z,84.14
2023-01-09T02:13:49.178Z,84.90
2023-01-09T02:16:23.344Z,85.47
2023-01-09T02:18:59.139Z,85.19
2023-01-09T02:21:40.598Z,83.46
2023-01-09T02:24:33.284Z,84.70
2023-01-09T02:27:14.513Z,84.45
2023-01-09T02:29:59.742Z,85.17
2023-01-09T02:32:43.235Z,85.28
2023-01-09T02:35:37.562Z,86.01
2023-01-09T02:38:15.696Z,85.75
2023-01-09T02:40:47.752Z,86.55
2023-01-09T02:43:14.306Z,86.87
2023-01-09T02:45:41.161Z,87.56
2023-01-09T02:48:12.244Z,86.25
2023-01-09T02:50:50.238Z,86.19
2023-01-09T02:53:22.873Z,86.10
2023-01-09T02:56:03.240Z,86.23
2023-01-09T02:58:54.739Z,86.32
2023-01-09T03:01:57.008Z,86.95
2023-01-09T03:04:50.746Z,87.16
2023-01-09T03:07:27.242Z,86.89
2023-01-09T03:09:58.921Z,88.48
2023-01-09T03:12:26.469Z,87.56
2023-01-09T03:14:54.994Z,86.54
2023-01-09T03:17:48.756Z,86.92
2023-01-09T03:20:18.092Z,86.80
2023-01-09T03:23:04.502Z,86.99
2023-01-09T03:25:31.260Z,86.91
2023-01-09T03:27:59.686Z,87.00
2023-01-09T03:30:26.810Z,87.06
2023-01-09T03:32:53.547Z,86.76
2023-01-09T03:35:20.132Z,86.72
2023-01-09T03:37:46.795Z,86.72
2023-01-09T03:40:13.462Z,87.15
2023-01-09T03:42:40.127Z,87.57
2023-01-09T03:45:07.191Z,87.10
2023-01-09T03:47:33.913Z,86.72
2023-01-09T03:50:00.592Z,86.25
2023-01-09T03:52:27.268Z,86.32
2023-01-09T03:54:53.955Z,86.36
2023-01-09T03:57:20.537Z,86.13
2023-01-09T03:59:47.261Z,85.46
2023-01-09T04:02:14.091Z,86.13
2023-01-09T04:04:40.781Z,86.10
2023-01-09T04:07:07.407Z,86.20
2023-01-09T04:09:34.093Z,86.87
2023-01-09T04:12:00.692Z,86.13
2023-01-09T04:14:27.420Z,85.58
2023-01-09T04:16:54.066Z,85.46
2023-01-09T04:19:20.625Z,85.19
2023-01-09T04:21:47.404Z,85.41
2023-01-09T04:24:14.119Z,85.17
2023-01-09T04:26:40.743Z,85.22
2023-01-09T04:29:07.386Z,84.82
2023-01-09T04:31:34.064Z,84.91
2023-01-09T04:34:00.810Z,86.81
2023-01-09T04:36:27.577Z,88.48
2023-01-09T04:38:54.292Z,88.94
2023-01-09T04:41:39.341Z,87.84
2023-01-09T04:44:06.191Z,86.35
2023-01-09T04:46:32.912Z,86.18
2023-01-09T04:48:59.614Z,85.60
2023-01-09T04:51:26.199Z,85.97
2023-01-09T04:53:52.925Z,87.31
2023-01-09T04:56:19.507Z,86.35
2023-01-09T04:58:46.217Z,85.79
2023-01-09T05:01:12.950Z,86.26
2023-01-09T05:03:39.607Z,86.94
2023-01-09T05:06:06.494Z,86.92
2023-01-09T05:08:33.179Z,86.05
2023-01-09T05:11:00.615Z,85.29
2023-01-09T05:13:28.122Z,84.85
2023-01-09T05:15:54.809Z,84.61
2023-01-09T05:18:21.397Z,84.39
2023-01-09T05:20:48.054Z,85.08
2023-01-09T05:23:14.725Z,85.07
2023-01-09T05:25:41.478Z,85.38
2023-01-09T05:28:08.182Z,84.53
2023-01-09T05:30:34.844Z,85.26
2023-01-09T05:33:01.519Z,84.78
2023-01-09T05:35:28.158Z,85.17
2023-01-09T05:37:55.009Z,83.65
2023-01-09T05:40:23.157Z,82.84
2023-01-09T05:42:53.302Z,83.42
2023-01-09T05:45:19.921Z,84.07
2023-01-09T05:47:46.650Z,84.91
2023-01-09T05:50:13.469Z,84.28
2023-01-09T05:52:40.247Z,84.04
2023-01-09T05:55:07.627Z,84.54
2023-01-09T05:57:34.296Z,84.32
2023-01-09T06:00:00.975Z,84.84
2023-01-09T06:02:27.773Z,84.11
2023-01-09T06:04:54.474Z,83.88
2023-01-09T06:07:23.358Z,85.21
2023-01-09T06:09:50.120Z,85.84
2023-01-09T06:12:16.744Z,85.54
2023-01-09T06:14:43.507Z,85.03
2023-01-09T06:17:11.108Z,85.15
2023-01-09T06:19:37.762Z,85.42
2023-01-09T06:22:04.423Z,85.80
2023-01-09T06:24:31.021Z,85.39
2023-01-09T06:26:57.696Z,85.92
2023-01-09T06:29:24.312Z,86.45
2023-01-09T06:31:50.914Z,85.90
2023-01-09T06:34:17.560Z,85.73
2023-01-09T06:36:44.332Z,86.26
2023-01-09T06:39:10.905Z,85.73
2023-01-09T06:41:37.659Z,85.13
2023-01-09T06:44:04.333Z,83.68
2023-01-09T06:46:31.005Z,84.22
2023-01-09T06:48:57.641Z,83.89
2023-01-09T06:51:24.310Z,83.54
2023-01-09T06:53:50.940Z,83.55
2023-01-09T06:56:17.638Z,83.42
2023-01-09T06:58:44.414Z,83.47
2023-01-09T07:01:11.242Z,83.68
2023-01-09T07:03:38.040Z,82.89
2023-01-09T07:06:05.062Z,83.26
2023-01-09T07:08:31.750Z,83.43
2023-01-09T07:10:58.412Z,83.51
2023-01-09T07:13:25.034Z,82.29
2023-01-09T07:15:53.656Z,83.06
2023-01-09T07:18:20.570Z,82.51
2023-01-09T07:20:47.283Z,85.58
2023-01-09T07:23:14.154Z,85.26
2023-01-09T07:25:42.291Z,85.70
2023-01-09T07:28:09.045Z,86.06
2023-01-09T07:30:35.769Z,85.03
2023-01-09T07:33:03.986Z,84.55
2023-01-09T07:35:30.829Z,83.62
2023-01-09T07:37:57.546Z,83.18
2023-01-09T07:40:24.491Z,83.61
2023-01-09T07:42:53.407Z,83.54
2023-01-09T07:45:20.087Z,84.86
2023-01-09T07:47:46.721Z,84.90
2023-01-09T07:50:13.336Z,83.51
2023-01-09T07:52:40.008Z,83.23
2023-01-09T07:55:07.241Z,84.95
2023-01-09T07:57:33.911Z,83.71
2023-01-09T08:00:03.422Z,83.68
2023-01-09T08:02:30.135Z,84.70
2023-01-09T08:04:56.792Z,85.38
2023-01-09T08:07:23.377Z,85.08
2023-01-09T08:09:50.026Z,84.36
2023-01-09T08:12:16.700Z,85.84
2023-01-09T08:14:43.414Z,85.53
2023-01-09T08:17:11.705Z,83.47
2023-01-09T08:19:38.463Z,84.45
2023-01-09T08:22:05.191Z,86.17
2023-01-09T08:24:32.842Z,85.30
2023-01-09T08:26:59.982Z,85.14
2023-01-09T08:29:26.582Z,85.18
2023-01-09T08:31:53.273Z,84.41
2023-01-09T08:34:20.013Z,85.08
2023-01-09T08:36:46.735Z,84.06
2023-01-09T08:39:13.368Z,84.98
2023-01-09T08:41:58.612Z,84.65
2023-01-09T08:44:43.676Z,85.31
2023-01-09T08:47:10.362Z,85.47
2023-01-09T08:49:38.227Z,84.23
2023-01-09T08:52:05.418Z,84.05
2023-01-09T08:54:32.148Z,85.26
2023-01-09T08:56:58.876Z,84.05
2023-01-09T08:59:25.480Z,83.29
2023-01-09T09:01:52.256Z,83.71
2023-01-09T09:04:19.004Z,82.29
2023-01-09T09:06:45.691Z,82.95
2023-01-09T09:09:12.488Z,83.82
2023-01-09T09:11:39.175Z,85.37
2023-01-09T09:14:25.828Z,86.03
2023-01-09T09:16:53.112Z,84.46
2023-01-09T09:19:19.733Z,84.00
2023-01-09T09:21:46.461Z,82.29
2023-01-09T09:24:13.223Z,81.14
2023-01-09T09:26:39.984Z,79.98
2023-01-09T09:29:06.748Z,78.18
2023-01-09T09:31:33.500Z,77.81
2023-01-09T09:34:00.319Z,78.08
2023-01-09T09:36:26.958Z,76.77
2023-01-09T09:38:53.639Z,75.67
2023-01-09T09:41:44.672Z,74.66
2023-01-09T09:44:52.682Z,72.11
2023-01-09T09:47:43.278Z,71.70
2023-01-09T09:50:54.949Z,72.67
2023-01-09T09:53:29.621Z,72.37
2023-01-09T09:55:57.656Z,73.67
2023-01-09T09:58:36.618Z,73.95
2023-01-09T10:01:03.733Z,72.49
2023-01-09T10:03:55.120Z,72.74
2023-01-09T10:06:31.371Z,72.58
2023-01-09T10:09:06.315Z,72.40
2023-01-09T10:11:56.085Z,71.13
2023-01-09T10:14:24.668Z,68.28
2023-01-09T10:17:09.608Z,68.75
2023-01-09T10:19:57.968Z,69.64
2023-01-09T10:23:06.489Z,67.96
2023-01-09T10:25:47.990Z,65.95
2023-01-09T10:28:39.843Z,64.85
2023-01-09T10:31:22.559Z,65.82
2023-01-09T10:34:21.503Z,63.78
2023-01-09T10:37:19.341Z,63.71
2023-01-09T10:39:52.620Z,63.42
2023-01-09T10:42:22.389Z,64.13
2023-01-09T10:45:12.321Z,62.99
2023-01-09T10:47:39.323Z,62.80
2023-01-09T10:50:20.645Z,63.07
2023-01-09T10:52:47.470Z,62.28
2023-01-09T10:55:19.295Z,62.95
2023-01-09T10:57:58.653Z,60.99
2023-01-09T11:00:25.627Z,61.93
2023-01-09T11:02:52.845Z,60.67
2023-01-09T11:05:25.065Z,60.90
2023-01-09T11:08:09.106Z,61.59
2023-01-09T11:10:58.637Z,62.04
2023-01-09T11:13:33.205Z,63.03
2023-01-09T11:16:05.538Z,64.26
2023-01-09T11:18:37.961Z,62.72
2023-01-09T11:21:32.873Z,62.24
2023-01-09T11:24:28.693Z,60.27
2023-01-09T11:27:23.625Z,59.03
2023-01-09T11:30:09.729Z,61.79
2023-01-09T11:32:36.443Z,60.55
2023-01-09T11:35:36.069Z,62.29
2023-01-09T11:38:10.651Z,60.90
2023-01-09T11:40:51.264Z,62.38
2023-01-09T11:43:25.697Z,60.28
2023-01-09T11:46:01.036Z,60.11
2023-01-09T11:48:33.005Z,57.49
2023-01-09T11:51:01.419Z,60.16
2023-01-09T11:53:28.182Z,58.76
2023-01-09T11:56:02.136Z,57.58
2023-01-09T11:58:32.001Z,58.48
2023-01-09T12:01:18.119Z,59.32
2023-01-09T12:03:59.826Z,58.01
2023-01-09T12:06:31.787Z,58.52
2023-01-09T12:09:02.743Z,58.83
2023-01-09T12:11:40.930Z,57.11
2023-01-09T12:14:26.020Z,59.17
2023-01-09T12:16:56.583Z,57.73
2023-01-09T12:19:49.085Z,58.10
2023-01-09T12:22:44.392Z,58.67
2023-01-09T12:25:38.647Z,58.63
2023-01-09T12:28:11.322Z,60.08
2023-01-09T12:30:44.358Z,60.31
2023-01-09T12:33:30.764Z,58.54
2023-01-09T12:36:19.157Z,58.72
2023-01-09T12:39:10.379Z,58.80
2023-01-09T12:41:52.241Z,59.53
2023-01-09T12:44:39.223Z,59.48
2023-01-09T12:47:39.912Z,59.14
2023-01-09T12:50:09.704Z,59.43
2023-01-09T12:52:44.270Z,60.17
2023-01-09T12:55:22.108Z,59.25
2023-01-09T12:57:53.379Z,60.30
2023-01-09T13:00:32.507Z,60.51
2023-01-09T13:03:12.056Z,60.81
2023-01-09T13:05:50.051Z,62.32
2023-01-09T13:08:32.538Z,62.67
2023-01-09T13:11:21.676Z,62.90
2023-01-09T13:14:02.387Z,62.60
2023-01-09T13:16:33.255Z,63.47
2023-01-09T13:19:01.919Z,63.67
2023-01-09T13:21:28.552Z,63.46
2023-01-09T13:24:02.344Z,63.26
2023-01-09T13:26:37.517Z,63.51
2023-01-09T13:29:16.805Z,64.20
2023-01-09T13:32:15.865Z,64.04
2023-01-09T13:34:42.519Z,64.62
2023-01-09T13:37:26.138Z,64.28
2023-01-09T13:40:00.606Z,64.17
2023-01-09T13:42:36.443Z,64.73
2023-01-09T13:45:25.483Z,65.28
2023-01-09T13:48:19.907Z,65.29
2023-01-09T13:50:47.254Z,65.63
2023-01-09T13:53:20.004Z,65.52
2023-01-09T13:55:59.295Z,65.59
2023-01-09T13:58:55.308Z,66.34
2023-01-09T14:01:24.639Z,67.12
2023-01-09T14:04:09.726Z,66.77
2023-01-09T14:06:36.422Z,67.22
2023-01-09T14:09:19.606Z,68.15
2023-01-09T14:11:46.265Z,68.41
2023-01-09T14:14:25.444Z,67.33
2023-01-09T14:16:52.174Z,68.50
2023-01-09T14:19:23.485Z,67.79
2023-01-09T14:21:55.301Z,68.86
2023-01-09T14:24:26.835Z,69.45
2023-01-09T14:26:57.320Z,68.96
2023-01-09T14:29:38.500Z,69.03
2023-01-09T14:32:23.671Z,68.74
2023-01-09T14:34:56.069Z,69.51
2023-01-09T14:37:22.781Z,70.17
2023-01-09T14:39:49.495Z,70.73
2023-01-09T14:42:19.261Z,71.14
2023-01-09T14:44:56.092Z,71.84
2023-01-09T14:47:31.725Z,71.99
2023-01-09T14:50:27.372Z,71.74
2023-01-09T14:53:04.682Z,73.76
2023-01-09T14:55:50.925Z,74.05
2023-01-09T14:58:26.020Z,75.48
2023-01-09T15:00:59.820Z,76.06
2023-01-09T15:03:29.494Z,75.84
2023-01-09T15:05:56.150Z,77.37
2023-01-09T15:08:24.064Z,76.96
2023-01-09T15:10:51.427Z,76.90
2023-01-09T15:13:21.438Z,76.51
2023-01-09T15:15:48.286Z,77.16
2023-01-09T15:18:21.212Z,76.97
2023-01-09T15:20:52.755Z,76.67
2023-01-09T15:23:24.068Z,77.54
2023-01-09T15:25:50.860Z,78.08
2023-01-09T15:28:25.342Z,76.73
2023-01-09T15:31:16.966Z,77.39
2023-01-09T15:33:44.864Z,77.18
2023-01-09T15:36:31.541Z,78.27
2023-01-09T15:38:58.340Z,79.30
2023-01-09T15:41:45.014Z,79.56
2023-01-09T15:44:27.384Z,78.75
2023-01-09T15:46:57.698Z,79.43
2023-01-09T15:49:24.309Z,79.20
2023-01-09T15:51:51.042Z,79.39
2023-01-09T15:54:30.418Z,79.68
2023-01-09T15:57:25.014Z,79.79
2023-01-09T15:59:54.366Z,80.92
2023-01-09T16:02:43.047Z,80.80
2023-01-09T16:05:15.920Z,81.37
2023-01-09T16:07:49.334Z,81.86
2023-01-09T16:10:34.353Z,81.31
2023-01-09T16:13:01.339Z,79.94
2023-01-09T16:15:29.063Z,79.77
2023-01-09T16:18:15.390Z,80.44
2023-01-09T16:20:42.376Z,80.21
2023-01-09T16:23:24.039Z,80.75
2023-01-09T16:25:50.817Z,81.42
2023-01-09T16:28:23.103Z,82.29
2023-01-09T16:30:55.760Z,82.77
2023-01-09T16:33:24.229Z,82.24
2023-01-09T16:35:51.294Z,82.80
2023-01-09T16:38:18.164Z,83.87
2023-01-09T16:41:23.271Z,83.41
2023-01-09T16:43:50.706Z,83.90
2023-01-09T16:46:21.189Z,83.22
2023-01-09T16:48:47.984Z,83.07
2023-01-09T16:51:16.509Z,83.14
2023-01-09T16:53:43.699Z,83.13
2023-01-09T16:56:22.164Z,83.10
2023-01-09T16:58:48.965Z,83.63
2023-01-09T17:01:15.882Z,82.88
2023-01-09T17:03:44.071Z,83.21
2023-01-09T17:06:24.373Z,83.47
2023-01-09T17:08:51.677Z,83.93
2023-01-09T17:11:22.984Z,85.23
2023-01-09T17:13:49.745Z,83.91
2023-01-09T17:16:19.693Z,82.89
2023-01-09T17:18:46.361Z,83.33
2023-01-09T17:21:20.909Z,82.88
2023-01-09T17:23:47.807Z,83.83
2023-01-09T17:26:39.013Z,82.90
2023-01-09T17:29:05.711Z,82.79
2023-01-09T17:31:32.406Z,83.87
2023-01-09T17:33:59.284Z,83.40
2023-01-09T17:36:32.140Z,83.08
2023-01-09T17:38:59.389Z,83.40
2023-01-09T17:41:27.720Z,84.60
2023-01-09T17:43:54.468Z,83.91
2023-01-09T17:46:34.939Z,85.22
2023-01-09T17:49:02.243Z,85.32
2023-01-09T17:51:29.433Z,84.95
2023-01-09T17:53:56.398Z,84.86
2023-01-09T17:56:24.820Z,84.43
2023-01-09T17:58:51.459Z,84.73
2023-01-09T18:01:18.182Z,84.38
2023-01-09T18:03:46.928Z,84.01
2023-01-09T18:06:13.761Z,85.19
2023-01-09T18:08:40.624Z,86.37
2023-01-09T18:11:08.957Z,85.83
2023-01-09T18:13:35.678Z,85.10
2023-01-09T18:16:02.411Z,85.18
2023-01-09T18:18:29.420Z,84.50
2023-01-09T18:20:56.284Z,85.21
2023-01-09T18:23:23.044Z,84.79
2023-01-09T18:25:49.656Z,84.13
2023-01-09T18:28:16.471Z,84.06
2023-01-09T18:30:47.800Z,84.60
2023-01-09T18:33:14.813Z,84.68
2023-01-09T18:35:42.260Z,85.03
2023-01-09T18:38:09.049Z,85.26
2023-01-09T18:40:37.018Z,84.99
2023-01-09T18:43:07.965Z,84.39
2023-01-09T18:45:34.719Z,85.46
2023-01-09T18:48:01.405Z,84.93
2023-01-09T18:50:28.019Z,86.11
2023-01-09T18:52:55.452Z,85.73
2023-01-09T18:55:22.046Z,85.29
2023-01-09T18:57:48.937Z,84.38
2023-01-09T19:00:15.894Z,85.53
2023-01-09T19:02:42.592Z,85.26
2023-01-09T19:05:09.425Z,85.70
2023-01-09T19:07:36.177Z,86.62
2023-01-09T19:10:02.804Z,86.19
2023-01-09T19:12:29.506Z,86.95
2023-01-09T19:14:56.145Z,87.15
2023-01-09T19:17:22.823Z,86.00
2023-01-09T19:19:50.100Z,86.34
2023-01-09T19:22:16.878Z,87.38
2023-01-09T19:24:43.562Z,86.89
2023-01-09T19:27:10.172Z,87.59
2023-01-09T19:29:37.037Z,86.20
2023-01-09T19:32:04.628Z,86.70
2023-01-09T19:34:31.377Z,86.92
2023-01-09T19:36:58.134Z,87.03
2023-01-09T19:39:24.778Z,87.29
2023-01-09T19:41:51.414Z,86.44
2023-01-09T19:44:19.070Z,86.00
2023-01-09T19:46:45.719Z,86.31
2023-01-09T19:49:12.339Z,86.51
2023-01-09T19:51:38.994Z,85.52
2023-01-09T19:54:08.626Z,86.28
2023-01-09T19:56:36.584Z,86.44
2023-01-09T19:59:03.951Z,86.62
2023-01-09T20:01:32.262Z,86.67
2023-01-09T20:04:04.290Z,86.76
2023-01-09T20:06:31.115Z,86.87
2023-01-09T20:08:59.024Z,87.53
2023-01-09T20:11:27.205Z,87.69
2023-01-09T20:13:55.609Z,86.53
2023-01-09T20:16:28.152Z,86.81
2023-01-09T20:18:57.585Z,87.55
2023-01-09T20:21:26.348Z,87.37
2023-01-09T20:23:54.535Z,86.96
2023-01-09T20:26:21.560Z,88.03
2023-01-09T20:28:48.209Z,87.97
2023-01-09T20:31:16.651Z,87.31
2023-01-09T20:33:43.826Z,88.05
2023-01-09T20:36:10.527Z,87.42
2023-01-09T20:38:37.673Z,88.09
2023-01-09T20:41:09.822Z,87.19
2023-01-09T20:43:36.498Z,87.77
2023-01-09T20:46:04.167Z,87.32
2023-01-09T20:48:30.988Z,87.65
2023-01-09T20:51:03.796Z,87.48
2023-01-09T20:53:30.437Z,88.33
2023-01-09T20:56:04.512Z,88.42
2023-01-09T20:58:31.090Z,89.28
2023-01-09T21:00:57.806Z,88.74
2023-01-09T21:03:24.405Z,88.94
2023-01-09T21:05:51.064Z,89.05
2023-01-09T21:08:18.016Z,88.65
2023-01-09T21:10:44.700Z,88.33
2023-01-09T21:13:11.329Z,88.09
2023-01-09T21:15:38.862Z,87.70
2023-01-09T21:18:05.815Z,88.34
2023-01-09T21:20:32.561Z,87.78
2023-01-09T21:22:59.282Z,88.12
2023-01-09T21:25:25.898Z,88.23
2023-01-09T21:27:52.673Z,88.08
2023-01-09T21:30:19.406Z,88.65
2023-01-09T21:32:46.143Z,88.89
2023-01-09T21:35:12.997Z,88.22
2023-01-09T21:37:39.660Z,89.15
2023-01-09T21:40:12.837Z,87.96
2023-01-09T21:42:58.203Z,88.84
2023-01-09T21:45:43.365Z,87.72
2023-01-09T21:48:10.076Z,88.02
2023-01-09T21:50:36.704Z,88.19
2023-01-09T21:53:03.491Z,87.21
2023-01-09T21:55:32.153Z,88.38
2023-01-09T21:58:01.144Z,88.70
2023-01-09T22:00:28.051Z,87.87
2023-01-09T22:02:55.048Z,87.88
2023-01-09T22:05:21.870Z,87.88
2023-01-09T22:07:48.580Z,88.58
2023-01-09T22:10:15.464Z,87.33
2023-01-09T22:13:02.099Z,88.55
2023-01-09T22:15:28.729Z,87.29
2023-01-09T22:17:55.458Z,88.96
2023-01-09T22:20:22.143Z,87.65
2023-01-09T22:22:49.492Z,87.70
2023-01-09T22:25:16.529Z,88.47
2023-01-09T22:27:43.878Z,88.93
2023-01-09T22:30:11.448Z,88.67
2023-01-09T22:32:38.086Z,88.64
2023-01-09T22:35:05.160Z,88.27
2023-01-09T22:37:31.866Z,89.28
2023-01-09T22:39:58.520Z,88.94
2023-01-09T22:42:25.128Z,89.17
2023-01-09T22:44:51.807Z,89.48
2023-01-09T22:47:18.377Z,90.10
2023-01-09T22:49:52.624Z,90.78
2023-01-09T22:52:19.995Z,90.07
2023-01-09T22:54:47.091Z,90.12
2023-01-09T22:57:13.656Z,89.45
2023-01-09T22:59:40.420Z,90.03
2023-01-09T23:02:07.170Z,88.80
2023-01-09T23:04:33.925Z,89.74
2023-01-09T23:07:00.671Z,90.47
2023-01-09T23:09:27.327Z,89.88
2023-01-09T23:12:03.384Z,89.59
2023-01-09T23:14:31.879Z,89.81
2023-01-09T23:16:58.648Z,91.77
2023-01-09T23:19:25.560Z,91.09
2023-01-09T23:21:52.272Z,89.94
2023-01-09T23:24:19.015Z,90.21
2023-01-09T23:26:46.454Z,90.98
2023-01-09T23:29:13.344Z,90.16
2023-01-09T23:31:40.084Z,90.79
2023-01-09T23:34:08.290Z,89.90
2023-01-09T23:36:35.738Z,89.87
2023-01-09T23:39:04.257Z,89.48
2023-01-09T23:41:49.529Z,89.50
2023-01-09T23:44:16.342Z,89.28
2023-01-09T23:46:42.942Z,90.33
2023-01-09T23:49:10.414Z,90.88
2023-01-09T23:51:37.043Z,89.60
2023-01-09T23:54:03.824Z,89.70
2023-01-09T23:56:31.299Z,90.17
2023-01-09T23:58:58.008Z,89.94
